Time;durP1;ratioP1;P1;durP2;ratioP2;P2;SDS_P1;SDS_P2;PMS_P1;PMS_P2;Temp;Humidity;BMP_temperature;BMP_pressure;BME280_temperature;BME280_humidity;BME280_pressure;Samples;Min_cycle;Max_cycle;Signal;HPM_P1;HPM_P2
2022/05/31 00:01:07;;;;;;;12.37;8.30;;;;;;;9.52;80.57;100593.84;1614647;87;26399;-78
2022/05/31 00:03:34;;;;;;;10.60;8.33;;;;;;;9.42;80.61;100595.94;1612215;87;26119;-78
2022/05/31 00:06:00;;;;;;;10.30;8.20;;;;;;;9.38;80.70;100598.64;1614000;87;27639;-79
2022/05/31 00:08:27;;;;;;;10.95;8.35;;;;;;;9.36;80.88;100595.81;1605370;87;25848;-78
2022/05/31 00:10:53;;;;;;;13.48;7.62;;;;;;;9.33;80.77;100595.66;1610647;87;25992;-79
2022/05/31 00:13:19;;;;;;;13.68;8.55;;;;;;;9.30;80.69;100600.86;1612385;87;26515;-78
2022/05/31 00:15:45;;;;;;;12.00;8.18;;;;;;;9.31;80.88;100602.53;1593278;88;26225;-79
2022/05/31 00:18:13;;;;;;;9.30;8.10;;;;;;;9.31;80.67;100603.03;1611727;87;27506;-78
2022/05/31 00:20:39;;;;;;;11.73;8.38;;;;;;;9.27;80.66;100608.41;1612762;87;26534;-78
2022/05/31 00:23:08;;;;;;;11.15;9.08;;;;;;;9.23;80.52;100604.44;1626819;87;25582;-78
2022/05/31 00:25:35;;;;;;;11.05;8.03;;;;;;;9.19;80.48;100603.97;1609546;87;25924;-78
2022/05/31 00:28:01;;;;;;;11.35;8.50;;;;;;;9.17;80.59;100607.29;1625227;86;26003;-78
2022/05/31 00:30:28;;;;;;;14.68;8.18;;;;;;;9.14;80.46;100606.33;1624153;87;27479;-79
2022/05/31 00:32:55;;;;;;;10.08;8.55;;;;;;;9.12;80.43;100611.02;1610211;87;26249;-78
2022/05/31 00:35:30;;;;;;;10.15;8.78;;;;;;;9.10;80.59;100608.20;1618041;87;25966;-79
2022/05/31 00:37:58;;;;;;;10.85;9.25;;;;;;;9.07;80.63;100617.89;1613140;87;26014;-79
2022/05/31 00:40:29;;;;;;;10.85;8.50;;;;;;;9.05;80.80;100621.23;1626751;87;25975;-79
2022/05/31 00:43:00;;;;;;;11.33;8.58;;;;;;;9.02;80.51;100625.62;1609137;87;27665;-78
2022/05/31 00:45:57;;;;;;;11.70;8.88;;;;;;;8.97;80.28;100619.46;1621940;87;25818;-78
2022/05/31 00:48:34;;;;;;;10.58;8.38;;;;;;;8.94;80.31;100620.33;1625785;87;25747;-78
2022/05/31 00:51:09;;;;;;;13.03;8.03;;;;;;;8.90;80.27;100625.67;1619834;87;25803;-78
2022/05/31 00:53:41;;;;;;;13.18;9.40;;;;;;;8.89;80.41;100624.02;1618631;87;25880;-78
2022/05/31 00:56:13;;;;;;;11.10;9.23;;;;;;;8.84;80.60;100627.70;1600763;88;27488;-79
2022/05/31 00:58:47;;;;;;;10.85;9.13;;;;;;;8.77;81.11;100631.58;1614799;87;25770;-79
2022/05/31 01:01:17;;;;;;;10.80;9.30;;;;;;;8.76;81.41;100633.94;1619931;87;26435;-79
2022/05/31 01:03:45;;;;;;;9.65;8.65;;;;;;;8.76;81.63;100630.42;1596731;87;25765;-78
2022/05/31 01:06:12;;;;;;;10.85;8.70;;;;;;;8.78;81.88;100632.41;1616524;87;26571;-79
2022/05/31 01:08:45;;;;;;;10.60;8.68;;;;;;;8.78;81.81;100630.59;1613734;87;28562;-78
2022/05/31 01:11:27;;;;;;;12.18;9.30;;;;;;;8.77;81.62;100633.44;1592817;88;25959;-79
2022/05/31 01:14:02;;;;;;;11.22;9.15;;;;;;;8.74;81.53;100637.28;1609693;87;26427;-78
2022/05/31 01:17:04;;;;;;;12.98;9.43;;;;;;;8.73;81.53;100632.94;1620375;87;25887;-78
2022/05/31 01:19:56;;;;;;;;;;;;;;;8.76;81.76;100642.44;1618437;87;25332;-79
2022/05/31 01:22:51;;;;;;;11.25;8.48;;;;;;;8.75;81.82;100638.09;1625125;87;28333;-78
2022/05/31 01:25:44;;;;;;;11.12;8.83;;;;;;;8.74;81.95;100647.13;1608218;87;25761;-78
2022/05/31 01:28:54;;;;;;;12.78;9.48;;;;;;;8.72;81.95;100649.14;1619353;87;26608;-79
2022/05/31 01:31:41;;;;;;;11.48;9.68;;;;;;;8.71;81.83;100653.64;1616029;87;25351;-78
2022/05/31 01:34:30;;;;;;;11.65;9.53;;;;;;;8.65;81.74;100648.16;1617757;87;26543;-79
2022/05/31 01:36:57;;;;;;;10.60;9.18;;;;;;;8.61;81.86;100647.69;1614747;87;27497;-79
2022/05/31 01:39:50;;;;;;;12.55;9.13;;;;;;;8.59;81.82;100643.02;1613422;87;25795;-78
2022/05/31 01:42:34;;;;;;;12.20;10.13;;;;;;;8.56;82.12;100654.03;1617019;87;25853;-78
2022/05/31 01:45:17;;;;;;;13.05;9.40;;;;;;;8.53;82.47;100649.05;1605691;87;26578;-79
2022/05/31 01:47:44;;;;;;;11.40;9.73;;;;;;;8.54;82.70;100657.37;1618825;86;25922;-79
2022/05/31 01:50:18;;;;;;;14.55;10.80;;;;;;;8.53;82.72;100657.06;1611215;87;27603;-79
2022/05/31 01:52:47;;;;;;;13.90;11.08;;;;;;;8.46;82.70;100658.25;1621958;87;25812;-79
2022/05/31 01:55:14;;;;;;;13.18;9.95;;;;;;;8.46;83.12;100658.75;1628006;87;25637;-79
2022/05/31 01:57:47;;;;;;;13.85;10.08;;;;;;;8.43;83.38;100656.41;1600127;87;26015;-79
2022/05/31 02:00:16;;;;;;;12.65;10.40;;;;;;;8.44;83.69;100656.75;1616705;87;25827;-79
2022/05/31 02:02:51;;;;;;;12.40;10.50;;;;;;;8.41;83.53;100664.59;1616580;87;28393;-78
2022/05/31 02:05:19;;;;;;;12.50;10.53;;;;;;;8.41;83.83;100666.42;1621867;87;25822;-79
2022/05/31 02:08:00;;;;;;;13.30;11.12;;;;;;;8.40;84.19;100652.77;1617422;87;25752;-79
2022/05/31 02:10:28;;;;;;;16.25;10.55;;;;;;;8.42;84.16;100660.09;1586012;87;26127;-78
2022/05/31 02:12:55;;;;;;;12.50;10.70;;;;;;;8.44;84.11;100655.42;1613299;87;25886;-79
2022/05/31 02:15:23;;;;;;;12.47;10.80;;;;;;;8.46;84.21;100661.41;1624492;87;27494;-79
2022/05/31 02:18:12;;;;;;;12.70;10.40;;;;;;;8.47;84.30;100659.06;1574483;88;25931;-78
2022/05/31 02:20:46;;;;;;;12.53;10.85;;;;;;;8.46;84.10;100663.59;1537591;91;25660;-78
2022/05/31 02:23:12;;;;;;;16.87;11.35;;;;;;;8.49;83.92;100658.38;1558192;89;25996;-79
2022/05/31 02:25:40;;;;;;;14.83;10.72;;;;;;;8.47;83.99;100663.91;1583294;88;25754;-78
2022/05/31 02:28:06;;;;;;;14.15;11.15;;;;;;;8.45;84.15;100675.26;1616441;87;28844;-79
2022/05/31 02:30:32;;;;;;;20.20;11.50;;;;;;;8.46;84.27;100676.94;1623303;87;25588;-78
2022/05/31 02:32:59;;;;;;;12.45;11.08;;;;;;;8.47;84.40;100674.58;1620628;87;25820;-79
2022/05/31 02:35:26;;;;;;;16.87;10.13;;;;;;;8.48;84.31;100670.92;1622398;87;25929;-78
2022/05/31 02:37:53;;;;;;;13.30;10.65;;;;;;;8.49;84.46;100675.73;1610647;87;26664;-79
2022/05/31 02:40:19;;;;;;;13.28;10.85;;;;;;;8.48;84.60;100678.93;1605265;87;28584;-78
2022/05/31 02:42:46;;;;;;;10.88;9.63;;;;;;;8.50;84.68;100674.75;1624349;87;25959;-78
2022/05/31 02:45:12;;;;;;;13.35;10.30;;;;;;;8.52;84.63;100677.58;1629756;87;25802;-79
2022/05/31 02:47:39;;;;;;;11.20;10.00;;;;;;;8.53;84.76;100676.56;1628418;86;26080;-79
2022/05/31 02:50:07;;;;;;;11.68;10.28;;;;;;;8.54;84.84;100672.90;1622438;87;26171;-78
2022/05/31 02:52:34;;;;;;;13.18;10.13;;;;;;;8.60;84.97;100671.89;1618111;87;27466;-79
2022/05/31 02:55:01;;;;;;;16.57;11.43;;;;;;;8.63;85.07;100678.20;1604836;87;25998;-79
2022/05/31 02:57:27;;;;;;;11.90;9.28;;;;;;;8.66;85.09;100680.02;1622991;86;25625;-79
2022/05/31 03:00:14;;;;;;;11.68;9.75;;;;;;;8.66;84.75;100677.87;1618370;87;26380;-79
2022/05/31 03:02:59;;;;;;;14.40;10.28;;;;;;;8.65;84.70;100678.38;1628318;87;25949;-79
2022/05/31 03:05:44;;;;;;;12.58;9.50;;;;;;;8.62;84.74;100680.03;1618019;87;28260;-79
2022/05/31 03:08:21;;;;;;;10.40;9.08;;;;;;;8.64;84.80;100684.70;1624919;87;25826;-79
2022/05/31 03:10:58;;;;;;;21.20;12.13;;;;;;;8.66;84.98;100687.22;1627925;87;25902;-79
2022/05/31 03:13:27;;;;;;;14.07;11.25;;;;;;;8.68;85.09;100690.55;1624690;87;25845;-79
2022/05/31 03:15:57;;;;;;;13.62;11.20;;;;;;;8.68;85.03;100695.89;1623849;87;25371;-79
2022/05/31 03:18:27;;;;;;;13.75;9.75;;;;;;;8.71;85.12;100693.70;1625745;87;27492;-79
2022/05/31 03:20:57;;;;;;;13.43;9.90;;;;;;;8.76;84.85;100697.19;1613683;87;25658;-79
2022/05/31 03:23:29;;;;;;;;;;;;;;;8.75;84.88;100703.52;1575385;89;25874;-78
2022/05/31 03:25:59;;;;;;;11.55;9.55;;;;;;;8.79;84.95;100704.87;1608357;87;26006;-79
2022/05/31 03:28:26;;;;;;;10.82;9.73;;;;;;;8.81;85.06;100709.53;1615706;87;26807;-79
2022/05/31 03:30:52;;;;;;;12.82;10.55;;;;;;;8.87;85.10;100704.34;1609444;87;27461;-79
2022/05/31 03:33:18;;;;;;;13.72;10.10;;;;;;;8.96;85.05;100702.47;1608920;87;26009;-80
2022/05/31 03:35:44;;;;;;;12.85;9.83;;;;;;;9.01;84.97;100706.27;1609053;87;25894;-79
2022/05/31 03:38:13;;;;;;;10.50;9.38;;;;;;;9.07;85.12;100704.73;1613810;87;26588;-79
2022/05/31 03:40:56;;;;;;;13.62;8.95;;;;;;;9.13;85.16;100703.52;1596725;88;25851;-79
2022/05/31 03:43:27;;;;;;;10.98;9.70;;;;;;;9.17;85.25;100710.71;1587482;88;27584;-79
2022/05/31 03:46:14;;;;;;;12.03;9.90;;;;;;;9.25;85.41;100718.68;1612853;87;25682;-79
2022/05/31 03:48:42;;;;;;;11.48;10.28;;;;;;;9.32;85.55;100712.97;1616801;87;25683;-79
2022/05/31 03:51:11;;;;;;;9.85;8.85;;;;;;;9.35;85.51;100715.27;1614689;87;26545;-79
2022/05/31 03:53:38;;;;;;;10.58;9.38;;;;;;;9.39;85.60;100720.59;1618112;87;26143;-79
2022/05/31 03:56:10;;;;;;;15.30;9.60;;;;;;;9.45;85.85;100725.27;1591846;88;27496;-79
2022/05/31 03:58:38;;;;;;;10.50;9.40;;;;;;;9.48;85.84;100724.05;1624429;87;25872;-79
2022/05/31 04:01:15;;;;;;;11.70;9.78;;;;;;;9.54;86.06;100726.05;1606948;87;25840;-79
2022/05/31 04:03:42;;;;;;;10.93;9.23;;;;;;;9.63;86.21;100730.30;1616877;87;25800;-79
2022/05/31 04:06:09;;;;;;;16.20;9.65;;;;;;;9.68;86.17;100735.47;1616510;87;26658;-79
2022/05/31 04:08:36;;;;;;;13.32;9.73;;;;;;;9.79;86.21;100738.23;1607965;88;27474;-79
2022/05/31 04:11:02;;;;;;;10.40;9.28;;;;;;;9.89;86.28;100738.32;1617555;87;25772;-79
2022/05/31 04:13:29;;;;;;;12.55;9.30;;;;;;;9.97;86.02;100740.09;1616869;87;25898;-79
2022/05/31 04:16:17;;;;;;;12.58;9.05;;;;;;;10.02;85.97;100745.25;1618025;87;26039;-79
2022/05/31 04:18:46;;;;;;;;;;;;;;;10.13;86.11;100745.86;1617701;87;25849;-80
2022/05/31 04:21:18;;;;;;;12.75;9.08;;;;;;;10.20;86.06;100747.61;1618695;87;28278;-79
2022/05/31 04:23:58;;;;;;;13.22;9.60;;;;;;;10.27;86.01;100755.26;1622993;87;25975;-79
2022/05/31 04:26:35;;;;;;;12.65;10.00;;;;;;;10.35;85.69;100753.03;1611235;87;25906;-79
2022/05/31 04:29:20;;;;;;;11.55;8.83;;;;;;;10.41;85.54;100757.16;1617613;87;26683;-79
2022/05/31 04:32:07;;;;;;;10.43;9.10;;;;;;;10.45;85.35;100753.09;1614976;87;26031;-79
2022/05/31 04:34:41;;;;;;;9.83;8.63;;;;;;;10.51;85.33;100758.22;1613398;87;27495;-79
2022/05/31 04:37:08;;;;;;;10.15;8.85;;;;;;;10.57;85.19;100762.84;1616302;87;25868;-80
2022/05/31 04:39:52;;;;;;;11.65;8.95;;;;;;;10.58;84.82;100760.00;1617997;87;25959;-80
2022/05/31 04:42:20;;;;;;;10.53;9.38;;;;;;;10.65;85.04;100754.71;1619330;87;26485;-80
2022/05/31 04:44:46;;;;;;;11.68;9.03;;;;;;;10.70;84.96;100754.51;1615398;87;26554;-79
2022/05/31 04:47:13;;;;;;;10.68;9.18;;;;;;;10.77;85.02;100756.78;1618359;86;27638;-79
2022/05/31 04:49:41;;;;;;;11.12;9.38;;;;;;;10.83;85.07;100759.22;1613392;87;26201;-79
2022/05/31 04:52:07;;;;;;;14.47;10.23;;;;;;;10.88;84.98;100752.81;1610797;87;25811;-80
2022/05/31 04:54:36;;;;;;;10.15;8.98;;;;;;;10.96;85.18;100753.21;1628711;87;25959;-79
2022/05/31 04:57:09;;;;;;;12.13;9.43;;;;;;;11.05;85.18;100758.30;1623209;86;25501;-79
2022/05/31 04:59:36;;;;;;;13.40;9.83;;;;;;;11.11;84.88;100755.37;1617991;87;27486;-79
2022/05/31 05:02:03;;;;;;;13.28;9.43;;;;;;;11.19;84.74;100762.81;1622183;87;26472;-79
2022/05/31 05:04:40;;;;;;;13.10;9.58;;;;;;;11.30;85.18;100754.80;1612182;87;25854;-79
2022/05/31 05:07:07;;;;;;;9.98;8.90;;;;;;;11.34;84.28;100755.58;1599911;88;26594;-79
2022/05/31 05:09:34;;;;;;;11.97;9.08;;;;;;;11.43;84.52;100757.64;1598860;88;25875;-79
2022/05/31 05:12:06;;;;;;;12.75;9.38;;;;;;;11.52;84.58;100757.86;1585635;87;27487;-79
2022/05/31 05:14:34;;;;;;;10.72;9.00;;;;;;;11.62;83.98;100757.03;1622721;87;26545;-79
2022/05/31 05:17:03;;;;;;;11.78;9.10;;;;;;;11.67;83.74;100757.34;1615102;87;25840;-79
2022/05/31 05:19:32;;;;;;;13.35;9.43;;;;;;;11.74;83.84;100761.44;1623641;87;27253;-79
2022/05/31 05:21:59;;;;;;;10.38;9.10;;;;;;;11.84;83.73;100764.13;1618240;87;26566;-79
2022/05/31 05:24:26;;;;;;;10.00;8.55;;;;;;;11.89;83.52;100767.05;1626756;87;28534;-79
2022/05/31 05:27:10;;;;;;;10.38;8.68;;;;;;;11.98;83.59;100769.10;1607012;87;26019;-79
2022/05/31 05:32:23;;;;;;;11.48;8.18;;;;;;;12.14;83.54;100774.23;1617742;87;26574;-79
2022/05/31 05:34:54;;;;;;;13.22;8.18;;;;;;;12.24;83.80;100778.75;1600348;87;25862;-79
2022/05/31 05:37:22;;;;;;;11.80;8.98;;;;;;;12.35;83.67;100779.08;1614817;87;27495;-79
2022/05/31 05:39:49;;;;;;;9.55;8.20;;;;;;;12.46;83.24;100782.25;1600086;88;25626;-78
2022/05/31 05:42:34;;;;;;;10.25;7.90;;;;;;;12.56;83.39;100785.42;1581109;88;25847;-79
2022/05/31 05:45:07;;;;;;;11.85;7.87;;;;;;;12.71;83.29;100791.53;1595700;88;26571;-79
2022/05/31 05:47:33;;;;;;;10.13;7.50;;;;;;;12.83;83.09;100784.61;1613868;87;25853;-79
2022/05/31 05:50:02;;;;;;;9.05;7.58;;;;;;;12.94;83.06;100792.11;1616864;87;26257;-79
2022/05/31 05:52:32;;;;;;;10.85;6.97;;;;;;;13.02;82.86;100793.31;1612583;87;25723;-79
2022/05/31 05:55:16;;;;;;;10.75;7.42;;;;;;;13.09;82.33;100796.88;1624717;87;25966;-79
2022/05/31 05:58:01;;;;;;;8.45;6.72;;;;;;;13.15;81.57;100794.77;1571985;90;25878;-78
2022/05/31 06:00:51;;;;;;;10.70;8.13;;;;;;;13.25;81.65;100802.47;1596489;87;25900;-79
2022/05/31 06:03:22;;;;;;;8.97;7.57;;;;;;;13.36;82.45;100801.40;1619766;87;28362;-79
2022/05/31 06:05:57;;;;;;;9.28;7.37;;;;;;;13.47;81.68;100803.49;1606286;87;26174;-79
2022/05/31 06:08:31;;;;;;;8.50;7.08;;;;;;;13.55;81.41;100802.00;1619329;87;25844;-79
2022/05/31 06:11:14;;;;;;;8.48;7.62;;;;;;;13.64;81.04;100796.73;1617266;87;26573;-78
2022/05/31 06:13:50;;;;;;;10.23;6.83;;;;;;;13.72;81.46;100797.92;1600074;88;25983;-79
2022/05/31 06:16:20;;;;;;;9.50;6.58;;;;;;;13.87;81.50;100803.13;1604217;87;27545;-79
2022/05/31 06:18:52;;;;;;;9.05;6.53;;;;;;;13.99;80.94;100808.73;1617626;87;26547;-79
2022/05/31 06:21:21;;;;;;;7.70;6.87;;;;;;;14.09;81.04;100809.20;1610905;87;26675;-79
2022/05/31 06:23:49;;;;;;;9.60;7.15;;;;;;;14.22;80.78;100801.14;1597834;88;26586;-79
2022/05/31 06:26:19;;;;;;;7.10;6.35;;;;;;;14.30;79.97;100805.84;1615439;86;26538;-79
2022/05/31 06:28:47;;;;;;;6.90;6.08;;;;;;;14.42;80.31;100802.84;1619240;87;27552;-79
2022/05/31 06:31:13;;;;;;;8.18;5.85;;;;;;;14.53;79.20;100802.73;1622431;87;26092;-79
2022/05/31 06:33:40;;;;;;;8.30;5.83;;;;;;;14.59;79.33;100796.52;1621108;87;25752;-79
2022/05/31 06:36:07;;;;;;;8.68;5.95;;;;;;;14.67;78.01;100801.17;1608152;86;25951;-79
2022/05/31 06:38:35;;;;;;;5.83;5.25;;;;;;;14.74;78.56;100804.38;1614389;87;25792;-79
2022/05/31 06:41:04;;;;;;;7.53;6.03;;;;;;;14.84;78.96;100808.31;1629941;87;28243;-79
2022/05/31 06:43:35;;;;;;;9.00;5.70;;;;;;;14.95;78.45;100806.87;1617084;87;25896;-79
2022/05/31 06:46:20;;;;;;;6.47;5.42;;;;;;;14.98;77.44;100808.62;1608476;87;25933;-79
2022/05/31 06:49:04;;;;;;;6.53;5.33;;;;;;;15.07;77.71;100810.58;1615804;87;26360;-79
2022/05/31 06:57:21;;;;;;;7.78;5.75;;;;;;;15.27;76.26;100800.03;1571169;89;26671;-78
2022/05/31 06:59:49;;;;;;;7.20;5.10;;;;;;;15.38;76.79;100807.98;1612976;87;25872;-79
2022/05/31 07:02:16;;;;;;;5.42;4.92;;;;;;;15.46;75.78;100811.86;1621255;87;26553;-79
2022/05/31 07:04:43;;;;;;;6.45;5.60;;;;;;;15.52;75.00;100809.65;1615705;87;26499;-79
2022/05/31 07:07:09;;;;;;;8.15;6.00;;;;;;;15.58;75.62;100813.35;1618725;86;27544;-79
2022/05/31 07:09:39;;;;;;;6.03;4.92;;;;;;;15.67;76.02;100811.56;1594452;87;25889;-79
2022/05/31 07:12:08;;;;;;;5.70;4.35;;;;;;;15.74;73.12;100813.69;1624337;87;26423;-79
2022/05/31 07:14:52;;;;;;;4.87;4.37;;;;;;;15.82;74.03;100809.41;1621773;87;26385;-79
2022/05/31 07:17:21;;;;;;;6.78;4.75;;;;;;;15.93;74.58;100809.25;1593226;87;25898;-79
2022/05/31 07:19:49;;;;;;;5.95;3.83;;;;;;;15.98;73.43;100809.41;1621500;87;28149;-79
2022/05/31 07:22:17;;;;;;;4.67;4.28;;;;;;;16.04;73.06;100812.59;1619300;87;25841;-79
2022/05/31 07:24:45;;;;;;;6.62;4.40;;;;;;;16.08;72.33;100811.94;1610343;87;26152;-79
2022/05/31 07:27:15;;;;;;;4.83;3.55;;;;;;;16.15;71.94;100811.39;1614321;87;25837;-79
2022/05/31 07:29:42;;;;;;;4.85;3.52;;;;;;;16.19;71.53;100812.61;1625476;87;25876;-78
2022/05/31 07:32:09;;;;;;;5.70;3.83;;;;;;;16.28;71.50;100810.98;1616007;87;28295;-79
2022/05/31 07:34:35;;;;;;;6.67;4.12;;;;;;;16.32;71.05;100804.09;1619775;87;25824;-79
2022/05/31 07:37:02;;;;;;;4.15;3.72;;;;;;;16.39;71.05;100812.98;1609925;87;25934;-79
2022/05/31 07:39:29;;;;;;;3.83;3.30;;;;;;;16.46;71.09;100807.85;1620510;87;25796;-78
2022/05/31 07:41:56;;;;;;;4.20;3.42;;;;;;;16.55;71.13;100815.20;1614687;87;25933;-79
2022/05/31 07:44:25;;;;;;;5.30;3.95;;;;;;;16.60;68.92;100814.83;1620818;87;27470;-78
2022/05/31 07:46:53;;;;;;;5.40;3.37;;;;;;;16.60;68.89;100816.70;1618334;87;25826;-79
2022/05/31 07:49:23;;;;;;;4.83;4.20;;;;;;;16.62;69.07;100812.73;1619801;87;25361;-79
2022/05/31 07:51:54;;;;;;;3.87;3.05;;;;;;;16.68;69.63;100811.84;1589239;87;25932;-79
2022/05/31 07:54:22;;;;;;;3.17;2.80;;;;;;;16.78;69.02;100814.89;1605426;87;26168;-78
2022/05/31 07:56:53;;;;;;;3.75;3.02;;;;;;;16.86;68.09;100813.25;1578445;86;27515;-79
2022/05/31 07:59:38;;;;;;;3.90;2.85;;;;;;;16.94;68.54;100811.61;1619833;87;26602;-79
2022/05/31 08:02:18;;;;;;;3.35;2.67;;;;;;;17.01;67.80;100813.41;1616192;87;26470;-79
2022/05/31 08:04:46;;;;;;;3.47;3.15;;;;;;;17.05;67.20;100809.20;1620690;87;26595;-79
2022/05/31 08:07:12;;;;;;;3.25;2.95;;;;;;;17.10;65.80;100817.50;1622118;86;25819;-79
2022/05/31 08:09:40;;;;;;;6.47;2.90;;;;;;;17.11;66.30;100811.85;1617284;87;27452;-79
2022/05/31 08:12:11;;;;;;;3.05;2.50;;;;;;;17.04;64.75;100812.47;1625675;87;25933;-79
2022/05/31 08:14:38;;;;;;;3.87;2.92;;;;;;;17.01;65.14;100814.77;1619350;87;25815;-79
2022/05/31 08:17:05;;;;;;;5.25;2.85;;;;;;;17.03;65.12;100812.66;1623704;86;25937;-79
2022/05/31 08:19:31;;;;;;;3.22;2.80;;;;;;;17.10;64.80;100816.98;1618130;87;26016;-79
2022/05/31 08:21:58;;;;;;;3.55;2.77;;;;;;;17.13;64.36;100812.45;1618847;87;27472;-80
2022/05/31 08:24:25;;;;;;;5.00;2.87;;;;;;;17.21;64.91;100820.30;1618403;87;26655;-79
2022/05/31 08:26:51;;;;;;;6.90;3.65;;;;;;;17.32;65.26;100814.66;1610134;87;25828;-78
2022/05/31 08:29:18;;;;;;;4.55;3.35;;;;;;;17.46;65.58;100814.80;1621899;87;26576;-79
2022/05/31 08:31:44;;;;;;;4.20;3.17;;;;;;;17.56;65.12;100824.08;1625576;87;25340;-79
2022/05/31 08:34:13;;;;;;;3.65;2.60;;;;;;;17.68;65.22;100820.91;1627888;87;27479;-79
2022/05/31 08:36:39;;;;;;;4.28;3.30;;;;;;;17.77;64.59;100826.84;1623945;86;25886;-78
2022/05/31 08:39:05;;;;;;;4.05;3.00;;;;;;;17.89;64.27;100824.20;1615737;87;25847;-78
2022/05/31 08:41:47;;;;;;;4.35;2.67;;;;;;;17.98;64.50;100826.89;1611451;87;25924;-79
2022/05/31 08:44:36;;;;;;;4.92;2.72;;;;;;;18.01;64.31;100828.61;1617405;87;25795;-78
2022/05/31 08:47:40;;;;;;;3.58;2.15;;;;;;;18.00;61.99;100830.20;1617756;87;27668;-79
2022/05/31 08:53:15;;;;;;;3.75;3.00;;;;;;;17.89;61.78;100832.33;1601453;87;25873;-79
2022/05/31 08:59:15;;;;;;;3.35;3.00;;;;;;;17.72;60.85;100828.06;1612785;87;26224;-79
2022/05/31 09:01:55;;;;;;;2.80;2.42;;;;;;;17.70;61.72;100830.18;1619296;87;27666;-79
2022/05/31 09:04:26;;;;;;;3.87;2.80;;;;;;;17.84;62.58;100822.69;1622400;87;26466;-78
2022/05/31 09:06:58;;;;;;;2.45;2.25;;;;;;;18.03;62.07;100822.42;1622549;87;25875;-79
2022/05/31 09:09:51;;;;;;;4.75;2.70;;;;;;;18.22;62.54;100819.16;1614407;87;26585;-78
2022/05/31 09:12:41;;;;;;;4.80;2.00;;;;;;;18.39;62.11;100819.59;1614766;87;25968;-79
2022/05/31 09:15:35;;;;;;;4.33;2.20;;;;;;;18.51;59.72;100827.80;1620806;87;28434;-79
2022/05/31 09:18:22;;;;;;;4.35;2.42;;;;;;;18.54;58.43;100830.58;1615274;87;26755;-78
2022/05/31 09:20:57;;;;;;;4.55;3.10;;;;;;;18.56;59.27;100829.30;1596820;88;26499;-79
2022/05/31 09:23:28;;;;;;;3.72;2.72;;;;;;;18.64;59.72;100824.88;1612900;87;26603;-79
2022/05/31 09:26:03;;;;;;;4.05;2.77;;;;;;;18.75;60.02;100825.95;1601333;87;26614;-79
2022/05/31 09:28:44;;;;;;;2.87;2.05;;;;;;;18.84;60.16;100829.98;1614890;87;27572;-79
2022/05/31 09:31:15;;;;;;;3.27;1.90;;;;;;;18.91;58.99;100826.08;1611530;87;25970;-79
2022/05/31 09:33:48;;;;;;;3.80;2.10;;;;;;;18.96;56.19;100819.42;1605180;87;25952;-79
2022/05/31 09:36:32;;;;;;;3.12;1.87;;;;;;;18.97;57.50;100826.48;1622498;86;26599;-79
2022/05/31 09:39:13;;;;;;;6.03;1.98;;;;;;;19.06;58.48;100824.23;1608513;87;26277;-79
2022/05/31 09:41:51;;;;;;;1.77;1.67;;;;;;;19.16;57.92;100829.92;1593297;88;27503;-79
2022/05/31 09:44:41;;;;;;;2.70;2.15;;;;;;;19.24;57.96;100825.48;1599787;88;25900;-79
2022/05/31 09:47:18;;;;;;;3.27;3.00;;;;;;;19.22;56.39;100832.48;1614180;87;26313;-78
2022/05/31 09:49:48;;;;;;;2.27;2.05;;;;;;;19.21;54.84;100825.42;1621681;87;25883;-79
2022/05/31 09:52:37;;;;;;;2.65;2.27;;;;;;;19.30;55.49;100823.69;1622354;87;25812;-78
2022/05/31 09:58:38;;;;;;;5.62;2.52;;;;;;;19.42;54.64;100832.14;1642265;85;26750;-79
2022/05/31 10:01:27;;;;;;;2.62;1.80;;;;;;;19.49;55.23;100827.94;1661039;84;25807;-78
2022/05/31 10:07:08;;;;;;;2.20;1.63;;;;;;;19.62;54.09;100835.30;1642312;83;25826;-78
2022/05/31 10:09:38;;;;;;;1.85;1.47;;;;;;;19.63;53.38;100821.20;1657943;85;27473;-78
2022/05/31 10:12:22;;;;;;;2.40;1.90;;;;;;;19.67;55.37;100821.00;1705792;82;26034;-78
2022/05/31 10:14:58;;;;;;;4.53;2.30;;;;;;;19.75;54.37;100830.97;1692693;83;26547;-78
2022/05/31 10:17:43;;;;;;;3.35;1.75;;;;;;;19.77;53.69;100821.20;1658658;85;26611;-78
2022/05/31 10:20:24;;;;;;;2.05;1.40;;;;;;;19.81;52.22;100823.72;1617527;85;25839;-78
2022/05/31 10:23:02;;;;;;;2.33;1.75;;;;;;;19.91;53.65;100823.39;1673325;84;27535;-78
2022/05/31 10:25:54;;;;;;;3.30;1.50;;;;;;;20.11;53.98;100825.67;1662849;85;26018;-79
2022/05/31 10:28:37;;;;;;;4.08;1.57;;;;;;;20.16;53.13;100819.51;1647758;85;25862;-78
2022/05/31 10:31:22;;;;;;;2.62;1.55;;;;;;;20.16;52.52;100818.15;1674016;84;25789;-78
2022/05/31 10:33:55;;;;;;;1.70;1.60;;;;;;;20.24;52.67;100824.58;1659569;84;25944;-77
2022/05/31 10:36:26;;;;;;;2.95;1.30;;;;;;;20.31;52.59;100822.02;1677347;85;27490;-78
2022/05/31 10:38:53;;;;;;;3.10;1.42;;;;;;;20.34;52.19;100824.22;1673388;84;25970;-77
2022/05/31 10:41:29;;;;;;;2.12;1.65;;;;;;;20.42;52.06;100822.45;1664240;84;25953;-78
2022/05/31 10:44:26;;;;;;;2.25;1.50;;;;;;;20.45;51.71;100817.06;1658453;84;26641;-78
2022/05/31 10:47:00;;;;;;;2.22;1.57;;;;;;;20.56;53.36;100822.45;1672675;83;26356;-78
2022/05/31 10:49:27;;;;;;;1.85;1.45;;;;;;;20.69;52.83;100821.29;1674123;84;27719;-77
2022/05/31 10:52:14;;;;;;;3.05;1.27;;;;;;;20.76;51.56;100817.88;1665024;84;25904;-78
2022/05/31 10:55:09;;;;;;;3.40;1.40;;;;;;;20.85;51.33;100817.72;1668216;84;25770;-78
2022/05/31 10:58:01;;;;;;;1.67;1.25;;;;;;;20.94;49.23;100829.02;1658531;84;26731;-78
2022/05/31 11:00:47;;;;;;;4.97;1.62;;;;;;;20.83;49.96;100828.04;1668150;84;25898;-78
2022/05/31 11:03:55;;;;;;;1.15;1.02;;;;;;;20.83;50.15;100821.80;1662318;84;27482;-77
2022/05/31 11:06:30;;;;;;;1.70;1.60;;;;;;;20.71;50.08;100825.95;1627172;86;26508;-78
2022/05/31 11:12:16;;;;;;;2.72;1.60;;;;;;;20.57;49.89;100820.00;1665470;84;26576;-78
2022/05/31 11:14:54;;;;;;;3.52;1.22;;;;;;;20.57;49.63;100824.08;1659186;84;25798;-78
2022/05/31 11:18:00;;;;;;;3.87;1.52;;;;;;;20.48;49.07;100822.03;1665538;84;29594;-78
2022/05/31 11:20:47;;;;;;;1.40;1.30;;;;;;;20.46;49.11;100818.73;1656643;84;26312;-78
2022/05/31 11:23:18;;;;;;;1.60;1.42;;;;;;;20.53;49.75;100821.56;1664289;84;26254;-79
2022/05/31 11:26:10;;;;;;;1.47;1.37;;;;;;;20.67;51.41;100817.99;1659998;84;25960;-78
2022/05/31 11:29:01;;;;;;;1.60;1.50;;;;;;;20.74;50.22;100815.94;1669286;84;26559;-78
2022/05/31 11:32:04;;;;;;;1.55;1.45;;;;;;;20.78;49.63;100815.73;1636703;85;27476;-79
2022/05/31 11:34:39;;;;;;;1.62;1.47;;;;;;;20.66;48.86;100804.91;1654518;84;25839;-78
2022/05/31 11:37:17;;;;;;;1.85;1.60;;;;;;;20.55;49.23;100810.45;1657058;85;25871;-78
2022/05/31 11:40:03;;;;;;;2.02;1.37;;;;;;;20.55;48.88;100807.73;1664001;84;26506;-78
2022/05/31 11:43:06;;;;;;;3.42;1.60;;;;;;;20.65;49.15;100801.08;1663716;84;25402;-78
2022/05/31 11:45:56;;;;;;;2.60;1.60;;;;;;;20.59;48.68;100806.96;1663422;83;27471;-78
2022/05/31 11:48:51;;;;;;;2.27;1.60;;;;;;;20.53;47.89;100801.71;1674687;84;26023;-78
2022/05/31 11:51:51;;;;;;;2.50;1.60;;;;;;;20.47;48.24;100803.50;1671642;84;25862;-78
2022/05/31 11:54:35;;;;;;;2.50;1.67;;;;;;;20.38;47.79;100797.38;1640144;86;25785;-78
2022/05/31 11:57:24;;;;;;;6.33;2.52;;;;;;;20.33;47.37;100795.38;1658857;84;25857;-78
2022/05/31 12:00:05;;;;;;;3.25;1.95;;;;;;;20.40;47.83;100787.06;1656143;84;28274;-78
2022/05/31 12:02:51;;;;;;;3.35;1.57;;;;;;;20.44;48.18;100789.58;1665716;84;25928;-78
2022/05/31 12:05:29;;;;;;;3.90;1.70;;;;;;;20.39;47.69;100787.59;1630501;86;25971;-78
2022/05/31 12:08:04;;;;;;;4.05;1.80;;;;;;;20.50;48.15;100784.50;1630081;86;25956;-78
2022/05/31 12:10:38;;;;;;;6.15;2.27;;;;;;;20.65;47.47;100794.28;1670164;84;26239;-79
2022/05/31 12:13:09;;;;;;;3.85;2.15;;;;;;;20.69;47.08;100784.02;1665687;84;28283;-78
2022/05/31 12:15:42;;;;;;;3.47;1.60;;;;;;;20.78;48.56;100778.41;1669973;84;25846;-78
2022/05/31 12:18:35;;;;;;;2.90;1.87;;;;;;;20.85;46.17;100780.16;1612904;86;25846;-78
2022/05/31 12:21:27;;;;;;;2.08;1.62;;;;;;;20.89;45.99;100779.95;1661007;84;25899;-78
2022/05/31 12:24:02;;;;;;;5.95;1.45;;;;;;;20.99;47.31;100773.28;1576842;89;25806;-78